sensor_id;sensor_type;location;lat;lon;timestamp;P1;durP1;ratioP1;P2;durP2;ratioP2
75320;SDS011;68337;52.196;5.660;2023-10-31T00:00:47;3.25;;;0.93;;
75320;SDS011;68337;52.196;5.660;2023-10-31T00:03:13;2.90;;;1.33;;
75320;SDS011;68337;52.196;5.660;2023-10-31T00:05:39;1.52;;;0.77;;
75320;SDS011;68337;52.196;5.660;2023-10-31T00:08:04;3.15;;;1.35;;
75320;SDS011;68337;52.196;5.660;2023-10-31T00:10:30;2.67;;;1.05;;
75320;SDS011;68337;52.196;5.660;2023-10-31T00:12:56;1.83;;;0.90;;
75320;SDS011;68337;52.196;5.660;2023-10-31T00:15:22;7.85;;;1.48;;
75320;SDS011;68337;52.196;5.660;2023-10-31T00:17:49;4.70;;;1.30;;
75320;SDS011;68337;52.196;5.660;2023-10-31T00:20:15;1.65;;;1.30;;
75320;SDS011;68337;52.196;5.660;2023-10-31T00:22:41;4.65;;;1.65;;
75320;SDS011;68337;52.196;5.660;2023-10-31T00:25:06;2.95;;;1.90;;
75320;SDS011;68337;52.196;5.660;2023-10-31T00:27:32;5.00;;;2.30;;
75320;SDS011;68337;52.196;5.660;2023-10-31T00:29:58;4.15;;;1.95;;
75320;SDS011;68337;52.196;5.660;2023-10-31T00:32:23;4.60;;;1.85;;
75320;SDS011;68337;52.196;5.660;2023-10-31T00:34:50;2.35;;;2.13;;
75320;SDS011;68337;52.196;5.660;2023-10-31T00:37:16;7.78;;;2.53;;
75320;SDS011;68337;52.196;5.660;2023-10-31T00:39:42;4.22;;;1.92;;
75320;SDS011;68337;52.196;5.660;2023-10-31T00:42:07;2.83;;;1.63;;
75320;SDS011;68337;52.196;5.660;2023-10-31T00:44:33;2.40;;;1.70;;
75320;SDS011;68337;52.196;5.660;2023-10-31T00:46:58;3.92;;;1.48;;
75320;SDS011;68337;52.196;5.660;2023-10-31T00:49:24;4.25;;;1.42;;
75320;SDS011;68337;52.196;5.660;2023-10-31T00:51:50;6.90;;;1.42;;
75320;SDS011;68337;52.196;5.660;2023-10-31T00:54:15;5.55;;;1.50;;
75320;SDS011;68337;52.196;5.660;2023-10-31T00:56:41;4.57;;;1.20;;
75320;SDS011;68337;52.196;5.660;2023-10-31T00:59:07;1.75;;;1.30;;
75320;SDS011;68337;52.196;5.660;2023-10-31T01:01:32;3.83;;;1.10;;
75320;SDS011;68337;52.196;5.660;2023-10-31T01:03:58;2.70;;;1.52;;
75320;SDS011;68337;52.196;5.660;2023-10-31T01:06:24;5.03;;;1.75;;
75320;SDS011;68337;52.196;5.660;2023-10-31T01:08:49;3.50;;;1.20;;
75320;SDS011;68337;52.196;5.660;2023-10-31T01:11:15;4.10;;;1.55;;
75320;SDS011;68337;52.196;5.660;2023-10-31T01:13:40;8.27;;;1.60;;
75320;SDS011;68337;52.196;5.660;2023-10-31T01:16:06;3.90;;;1.75;;
75320;SDS011;68337;52.196;5.660;2023-10-31T01:18:32;4.28;;;2.20;;
75320;SDS011;68337;52.196;5.660;2023-10-31T01:20:58;9.02;;;3.13;;
75320;SDS011;68337;52.196;5.660;2023-10-31T01:23:23;7.40;;;3.70;;
75320;SDS011;68337;52.196;5.660;2023-10-31T01:25:49;11.18;;;6.22;;
75320;SDS011;68337;52.196;5.660;2023-10-31T01:28:15;11.98;;;7.30;;
75320;SDS011;68337;52.196;5.660;2023-10-31T01:30:40;10.30;;;6.82;;
75320;SDS011;68337;52.196;5.660;2023-10-31T01:33:06;12.57;;;8.65;;
75320;SDS011;68337;52.196;5.660;2023-10-31T01:35:32;12.80;;;8.75;;
75320;SDS011;68337;52.196;5.660;2023-10-31T01:37:57;12.80;;;8.18;;
75320;SDS011;68337;52.196;5.660;2023-10-31T01:40:23;18.73;;;9.15;;
75320;SDS011;68337;52.196;5.660;2023-10-31T01:42:48;12.63;;;9.15;;
75320;SDS011;68337;52.196;5.660;2023-10-31T01:45:14;14.23;;;9.43;;
75320;SDS011;68337;52.196;5.660;2023-10-31T01:47:40;16.52;;;10.00;;
75320;SDS011;68337;52.196;5.660;2023-10-31T01:50:06;16.58;;;10.27;;
75320;SDS011;68337;52.196;5.660;2023-10-31T01:52:33;16.70;;;10.82;;
75320;SDS011;68337;52.196;5.660;2023-10-31T01:55:01;20.65;;;11.93;;
75320;SDS011;68337;52.196;5.660;2023-10-31T01:57:27;22.13;;;11.75;;
75320;SDS011;68337;52.196;5.660;2023-10-31T01:59:53;17.45;;;11.57;;
75320;SDS011;68337;52.196;5.660;2023-10-31T02:02:20;24.00;;;11.88;;
75320;SDS011;68337;52.196;5.660;2023-10-31T02:04:48;16.38;;;11.75;;
75320;SDS011;68337;52.196;5.660;2023-10-31T02:07:15;18.65;;;11.95;;
75320;SDS011;68337;52.196;5.660;2023-10-31T02:09:40;18.23;;;10.98;;
75320;SDS011;68337;52.196;5.660;2023-10-31T02:12:06;14.40;;;9.40;;
75320;SDS011;68337;52.196;5.660;2023-10-31T02:14:32;12.90;;;8.00;;
75320;SDS011;68337;52.196;5.660;2023-10-31T02:16:57;12.10;;;7.25;;
75320;SDS011;68337;52.196;5.660;2023-10-31T02:19:23;9.60;;;5.18;;
75320;SDS011;68337;52.196;5.660;2023-10-31T02:21:49;5.38;;;3.92;;
75320;SDS011;68337;52.196;5.660;2023-10-31T02:24:14;5.75;;;3.65;;
75320;SDS011;68337;52.196;5.660;2023-10-31T02:26:40;3.42;;;2.55;;
75320;SDS011;68337;52.196;5.660;2023-10-31T02:29:05;3.63;;;2.72;;
75320;SDS011;68337;52.196;5.660;2023-10-31T02:31:31;2.20;;;1.75;;
75320;SDS011;68337;52.196;5.660;2023-10-31T02:33:57;1.90;;;1.63;;
75320;SDS011;68337;52.196;5.660;2023-10-31T02:36:23;2.03;;;1.83;;
75320;SDS011;68337;52.196;5.660;2023-10-31T02:38:49;2.90;;;2.17;;
75320;SDS011;68337;52.196;5.660;2023-10-31T02:41:14;5.53;;;3.20;;
75320;SDS011;68337;52.196;5.660;2023-10-31T02:43:41;4.25;;;3.85;;
75320;SDS011;68337;52.196;5.660;2023-10-31T02:46:07;6.70;;;4.35;;
75320;SDS011;68337;52.196;5.660;2023-10-31T02:48:33;4.80;;;4.00;;
75320;SDS011;68337;52.196;5.660;2023-10-31T02:51:07;7.13;;;4.00;;
75320;SDS011;68337;52.196;5.660;2023-10-31T02:53:33;6.05;;;5.35;;
75320;SDS011;68337;52.196;5.660;2023-10-31T02:55:59;6.50;;;5.75;;
75320;SDS011;68337;52.196;5.660;2023-10-31T02:58:25;8.73;;;6.45;;
75320;SDS011;68337;52.196;5.660;2023-10-31T03:00:50;8.68;;;6.50;;
75320;SDS011;68337;52.196;5.660;2023-10-31T03:03:16;10.02;;;6.88;;
75320;SDS011;68337;52.196;5.660;2023-10-31T03:05:42;9.75;;;6.82;;
75320;SDS011;68337;52.196;5.660;2023-10-31T03:08:07;11.05;;;8.55;;
75320;SDS011;68337;52.196;5.660;2023-10-31T03:10:35;8.95;;;7.90;;
75320;SDS011;68337;52.196;5.660;2023-10-31T03:13:01;12.95;;;9.20;;
75320;SDS011;68337;52.196;5.660;2023-10-31T03:15:27;11.77;;;9.73;;
75320;SDS011;68337;52.196;5.660;2023-10-31T03:17:53;12.25;;;10.00;;
75320;SDS011;68337;52.196;5.660;2023-10-31T03:20:18;17.45;;;11.38;;
75320;SDS011;68337;52.196;5.660;2023-10-31T03:22:44;18.98;;;12.50;;
75320;SDS011;68337;52.196;5.660;2023-10-31T03:25:10;19.38;;;13.02;;
75320;SDS011;68337;52.196;5.660;2023-10-31T03:27:35;19.38;;;14.15;;
75320;SDS011;68337;52.196;5.660;2023-10-31T03:30:01;19.42;;;13.70;;
75320;SDS011;68337;52.196;5.660;2023-10-31T03:32:27;20.73;;;13.73;;
75320;SDS011;68337;52.196;5.660;2023-10-31T03:34:52;21.67;;;14.40;;
75320;SDS011;68337;52.196;5.660;2023-10-31T03:37:18;19.77;;;13.40;;
75320;SDS011;68337;52.196;5.660;2023-10-31T03:39:44;17.83;;;12.57;;
75320;SDS011;68337;52.196;5.660;2023-10-31T03:42:09;22.85;;;13.45;;
75320;SDS011;68337;52.196;5.660;2023-10-31T03:44:35;19.50;;;12.98;;
75320;SDS011;68337;52.196;5.660;2023-10-31T03:47:00;20.73;;;13.38;;
75320;SDS011;68337;52.196;5.660;2023-10-31T03:49:27;21.23;;;13.18;;
75320;SDS011;68337;52.196;5.660;2023-10-31T03:51:52;17.85;;;11.48;;
75320;SDS011;68337;52.196;5.660;2023-10-31T03:54:18;17.73;;;10.23;;
75320;SDS011;68337;52.196;5.660;2023-10-31T03:56:44;17.60;;;10.18;;
75320;SDS011;68337;52.196;5.660;2023-10-31T03:59:10;16.48;;;9.25;;
75320;SDS011;68337;52.196;5.660;2023-10-31T04:01:35;14.10;;;8.13;;
75320;SDS011;68337;52.196;5.660;2023-10-31T04:04:01;11.00;;;7.28;;
75320;SDS011;68337;52.196;5.660;2023-10-31T04:06:27;10.82;;;6.65;;
75320;SDS011;68337;52.196;5.660;2023-10-31T04:08:53;10.98;;;6.20;;
75320;SDS011;68337;52.196;5.660;2023-10-31T04:11:19;11.82;;;5.72;;
75320;SDS011;68337;52.196;5.660;2023-10-31T04:13:45;8.20;;;5.13;;
75320;SDS011;68337;52.196;5.660;2023-10-31T04:16:10;7.45;;;4.53;;
75320;SDS011;68337;52.196;5.660;2023-10-31T04:18:36;5.55;;;3.90;;
75320;SDS011;68337;52.196;5.660;2023-10-31T04:21:02;6.90;;;3.75;;
75320;SDS011;68337;52.196;5.660;2023-10-31T04:23:28;6.53;;;3.70;;
75320;SDS011;68337;52.196;5.660;2023-10-31T04:25:54;4.07;;;3.30;;
75320;SDS011;68337;52.196;5.660;2023-10-31T04:28:19;4.63;;;3.00;;
75320;SDS011;68337;52.196;5.660;2023-10-31T04:30:45;4.38;;;3.17;;
75320;SDS011;68337;52.196;5.660;2023-10-31T04:33:11;6.47;;;3.17;;
75320;SDS011;68337;52.196;5.660;2023-10-31T04:35:36;8.50;;;2.65;;
75320;SDS011;68337;52.196;5.660;2023-10-31T04:38:02;3.60;;;2.13;;
75320;SDS011;68337;52.196;5.660;2023-10-31T04:40:28;3.88;;;1.90;;
75320;SDS011;68337;52.196;5.660;2023-10-31T04:42:54;2.08;;;1.80;;
75320;SDS011;68337;52.196;5.660;2023-10-31T04:45:20;6.22;;;2.20;;
75320;SDS011;68337;52.196;5.660;2023-10-31T04:47:45;4.35;;;2.00;;
75320;SDS011;68337;52.196;5.660;2023-10-31T04:50:11;3.30;;;1.98;;
75320;SDS011;68337;52.196;5.660;2023-10-31T04:52:37;4.82;;;2.03;;
75320;SDS011;68337;52.196;5.660;2023-10-31T04:55:02;2.72;;;1.85;;
75320;SDS011;68337;52.196;5.660;2023-10-31T04:57:28;3.47;;;2.00;;
75320;SDS011;68337;52.196;5.660;2023-10-31T04:59:54;2.58;;;2.10;;
75320;SDS011;68337;52.196;5.660;2023-10-31T05:02:22;8.52;;;2.50;;
75320;SDS011;68337;52.196;5.660;2023-10-31T05:04:48;4.07;;;1.95;;
75320;SDS011;68337;52.196;5.660;2023-10-31T05:07:16;3.45;;;1.80;;
75320;SDS011;68337;52.196;5.660;2023-10-31T05:09:42;4.35;;;2.00;;
75320;SDS011;68337;52.196;5.660;2023-10-31T05:12:08;2.80;;;1.67;;
75320;SDS011;68337;52.196;5.660;2023-10-31T05:14:34;3.92;;;1.80;;
75320;SDS011;68337;52.196;5.660;2023-10-31T05:17:00;1.30;;;1.20;;
75320;SDS011;68337;52.196;5.660;2023-10-31T05:19:25;1.77;;;1.23;;
75320;SDS011;68337;52.196;5.660;2023-10-31T05:21:51;1.75;;;1.30;;
75320;SDS011;68337;52.196;5.660;2023-10-31T05:24:17;4.00;;;1.13;;
75320;SDS011;68337;52.196;5.660;2023-10-31T05:26:43;2.00;;;1.13;;
75320;SDS011;68337;52.196;5.660;2023-10-31T05:29:10;2.03;;;1.35;;
75320;SDS011;68337;52.196;5.660;2023-10-31T05:31:36;2.53;;;1.15;;
75320;SDS011;68337;52.196;5.660;2023-10-31T05:34:01;0.85;;;0.70;;
75320;SDS011;68337;52.196;5.660;2023-10-31T05:36:28;1.95;;;1.05;;
75320;SDS011;68337;52.196;5.660;2023-10-31T05:38:55;1.98;;;1.00;;
75320;SDS011;68337;52.196;5.660;2023-10-31T05:41:20;3.20;;;1.00;;
75320;SDS011;68337;52.196;5.660;2023-10-31T05:43:46;1.05;;;0.95;;
75320;SDS011;68337;52.196;5.660;2023-10-31T05:46:12;1.27;;;1.00;;
75320;SDS011;68337;52.196;5.660;2023-10-31T05:48:41;2.70;;;1.17;;
75320;SDS011;68337;52.196;5.660;2023-10-31T05:51:15;2.55;;;1.08;;
75320;SDS011;68337;52.196;5.660;2023-10-31T05:53:42;1.23;;;1.13;;
75320;SDS011;68337;52.196;5.660;2023-10-31T05:56:09;2.17;;;1.30;;
75320;SDS011;68337;52.196;5.660;2023-10-31T05:58:37;13.35;;;1.75;;
75320;SDS011;68337;52.196;5.660;2023-10-31T06:01:03;2.83;;;1.50;;
75320;SDS011;68337;52.196;5.660;2023-10-31T06:03:29;1.98;;;1.50;;
75320;SDS011;68337;52.196;5.660;2023-10-31T06:05:55;3.17;;;1.70;;
75320;SDS011;68337;52.196;5.660;2023-10-31T06:08:20;4.95;;;1.58;;
75320;SDS011;68337;52.196;5.660;2023-10-31T06:10:46;3.03;;;1.63;;
75320;SDS011;68337;52.196;5.660;2023-10-31T06:13:12;3.47;;;1.30;;
75320;SDS011;68337;52.196;5.660;2023-10-31T06:15:37;1.88;;;1.75;;
75320;SDS011;68337;52.196;5.660;2023-10-31T06:18:03;2.45;;;1.52;;
75320;SDS011;68337;52.196;5.660;2023-10-31T06:20:29;2.40;;;1.88;;
75320;SDS011;68337;52.196;5.660;2023-10-31T06:22:54;3.35;;;1.90;;
75320;SDS011;68337;52.196;5.660;2023-10-31T06:25:20;3.58;;;2.25;;
75320;SDS011;68337;52.196;5.660;2023-10-31T06:27:46;3.80;;;2.50;;
75320;SDS011;68337;52.196;5.660;2023-10-31T06:30:11;2.45;;;2.30;;
75320;SDS011;68337;52.196;5.660;2023-10-31T06:32:38;3.47;;;2.88;;
75320;SDS011;68337;52.196;5.660;2023-10-31T06:35:05;4.63;;;3.67;;
75320;SDS011;68337;52.196;5.660;2023-10-31T06:37:32;5.45;;;3.38;;
75320;SDS011;68337;52.196;5.660;2023-10-31T06:39:57;4.47;;;4.07;;
75320;SDS011;68337;52.196;5.660;2023-10-31T06:42:23;7.43;;;4.15;;
75320;SDS011;68337;52.196;5.660;2023-10-31T06:44:48;6.47;;;4.78;;
75320;SDS011;68337;52.196;5.660;2023-10-31T06:47:14;5.45;;;4.80;;
75320;SDS011;68337;52.196;5.660;2023-10-31T06:49:40;6.35;;;4.93;;
75320;SDS011;68337;52.196;5.660;2023-10-31T06:52:05;6.35;;;4.60;;
75320;SDS011;68337;52.196;5.660;2023-10-31T06:54:31;9.57;;;5.15;;
75320;SDS011;68337;52.196;5.660;2023-10-31T06:56:57;13.85;;;5.68;;
75320;SDS011;68337;52.196;5.660;2023-10-31T06:59:22;8.57;;;5.50;;
75320;SDS011;68337;52.196;5.660;2023-10-31T07:01:48;11.00;;;6.45;;
75320;SDS011;68337;52.196;5.660;2023-10-31T07:04:14;7.18;;;5.78;;
75320;SDS011;68337;52.196;5.660;2023-10-31T07:06:39;9.57;;;6.18;;
75320;SDS011;68337;52.196;5.660;2023-10-31T07:09:05;8.57;;;6.10;;
75320;SDS011;68337;52.196;5.660;2023-10-31T07:11:31;9.75;;;6.10;;
75320;SDS011;68337;52.196;5.660;2023-10-31T07:14:02;8.25;;;6.18;;
75320;SDS011;68337;52.196;5.660;2023-10-31T07:16:28;8.05;;;5.65;;
75320;SDS011;68337;52.196;5.660;2023-10-31T07:18:54;7.97;;;5.85;;
75320;SDS011;68337;52.196;5.660;2023-10-31T07:21:20;6.65;;;5.32;;
75320;SDS011;68337;52.196;5.660;2023-10-31T07:23:46;7.95;;;5.38;;
75320;SDS011;68337;52.196;5.660;2023-10-31T07:26:11;5.18;;;4.13;;
75320;SDS011;68337;52.196;5.660;2023-10-31T07:28:37;4.80;;;4.30;;
75320;SDS011;68337;52.196;5.660;2023-10-31T07:31:03;5.90;;;3.83;;
75320;SDS011;68337;52.196;5.660;2023-10-31T07:33:29;8.05;;;3.80;;
75320;SDS011;68337;52.196;5.660;2023-10-31T07:35:55;6.32;;;3.45;;
75320;SDS011;68337;52.196;5.660;2023-10-31T07:38:21;3.88;;;3.47;;
75320;SDS011;68337;52.196;5.660;2023-10-31T07:40:46;5.82;;;3.33;;
75320;SDS011;68337;52.196;5.660;2023-10-31T07:43:13;3.30;;;2.95;;
75320;SDS011;68337;52.196;5.660;2023-10-31T07:45:39;4.30;;;2.70;;
75320;SDS011;68337;52.196;5.660;2023-10-31T07:48:05;5.70;;;3.40;;
75320;SDS011;68337;52.196;5.660;2023-10-31T07:50:30;4.05;;;2.88;;
75320;SDS011;68337;52.196;5.660;2023-10-31T07:52:56;5.38;;;2.78;;
75320;SDS011;68337;52.196;5.660;2023-10-31T07:55:22;7.63;;;3.20;;
75320;SDS011;68337;52.196;5.660;2023-10-31T07:57:47;4.03;;;2.40;;
75320;SDS011;68337;52.196;5.660;2023-10-31T08:00:13;2.97;;;2.67;;
75320;SDS011;68337;52.196;5.660;2023-10-31T08:02:39;4.10;;;2.92;;
75320;SDS011;68337;52.196;5.660;2023-10-31T08:05:05;3.45;;;2.58;;
75320;SDS011;68337;52.196;5.660;2023-10-31T08:07:32;4.15;;;2.42;;
75320;SDS011;68337;52.196;5.660;2023-10-31T08:09:57;5.28;;;2.60;;
75320;SDS011;68337;52.196;5.660;2023-10-31T08:12:23;3.90;;;2.80;;
75320;SDS011;68337;52.196;5.660;2023-10-31T08:14:49;4.20;;;2.30;;
75320;SDS011;68337;52.196;5.660;2023-10-31T08:17:14;6.55;;;2.95;;
75320;SDS011;68337;52.196;5.660;2023-10-31T08:19:40;3.63;;;2.42;;
75320;SDS011;68337;52.196;5.660;2023-10-31T08:22:07;3.22;;;2.33;;
75320;SDS011;68337;52.196;5.660;2023-10-31T08:24:33;3.92;;;2.55;;
75320;SDS011;68337;52.196;5.660;2023-10-31T08:27:01;3.38;;;2.67;;
75320;SDS011;68337;52.196;5.660;2023-10-31T08:29:27;3.65;;;3.00;;
75320;SDS011;68337;52.196;5.660;2023-10-31T08:31:52;9.63;;;3.53;;
75320;SDS011;68337;52.196;5.660;2023-10-31T08:34:18;5.97;;;2.85;;
75320;SDS011;68337;52.196;5.660;2023-10-31T08:36:44;6.00;;;2.65;;
75320;SDS011;68337;52.196;5.660;2023-10-31T08:39:09;5.85;;;2.85;;
75320;SDS011;68337;52.196;5.660;2023-10-31T08:41:35;5.25;;;2.63;;
75320;SDS011;68337;52.196;5.660;2023-10-31T08:44:02;6.82;;;2.72;;
75320;SDS011;68337;52.196;5.660;2023-10-31T08:46:28;4.18;;;2.85;;
75320;SDS011;68337;52.196;5.660;2023-10-31T08:48:54;4.05;;;2.90;;
75320;SDS011;68337;52.196;5.660;2023-10-31T08:51:20;3.30;;;3.00;;
75320;SDS011;68337;52.196;5.660;2023-10-31T08:53:45;6.63;;;3.42;;
75320;SDS011;68337;52.196;5.660;2023-10-31T08:56:11;5.13;;;3.50;;
75320;SDS011;68337;52.196;5.660;2023-10-31T08:58:37;4.07;;;3.25;;
75320;SDS011;68337;52.196;5.660;2023-10-31T09:01:02;6.28;;;3.92;;
75320;SDS011;68337;52.196;5.660;2023-10-31T09:03:28;4.05;;;3.28;;
75320;SDS011;68337;52.196;5.660;2023-10-31T09:05:54;6.15;;;3.17;;
75320;SDS011;68337;52.196;5.660;2023-10-31T09:08:20;4.38;;;2.80;;
75320;SDS011;68337;52.196;5.660;2023-10-31T09:10:45;6.82;;;2.50;;
75320;SDS011;68337;52.196;5.660;2023-10-31T09:13:11;6.07;;;2.88;;
75320;SDS011;68337;52.196;5.660;2023-10-31T09:15:37;4.88;;;3.15;;
75320;SDS011;68337;52.196;5.660;2023-10-31T09:18:03;4.72;;;2.92;;
75320;SDS011;68337;52.196;5.660;2023-10-31T09:20:29;7.80;;;3.35;;
75320;SDS011;68337;52.196;5.660;2023-10-31T09:22:55;4.88;;;2.60;;
75320;SDS011;68337;52.196;5.660;2023-10-31T09:25:21;10.50;;;3.58;;
75320;SDS011;68337;52.196;5.660;2023-10-31T09:27:46;7.32;;;3.50;;
75320;SDS011;68337;52.196;5.660;2023-10-31T09:30:12;3.83;;;2.63;;
75320;SDS011;68337;52.196;5.660;2023-10-31T09:32:38;6.60;;;3.15;;
75320;SDS011;68337;52.196;5.660;2023-10-31T09:35:04;6.03;;;2.97;;
75320;SDS011;68337;52.196;5.660;2023-10-31T09:37:30;5.97;;;2.83;;
75320;SDS011;68337;52.196;5.660;2023-10-31T09:39:56;3.75;;;2.83;;
75320;SDS011;68337;52.196;5.660;2023-10-31T09:42:22;9.77;;;3.50;;
75320;SDS011;68337;52.196;5.660;2023-10-31T09:44:47;5.40;;;2.50;;
75320;SDS011;68337;52.196;5.660;2023-10-31T09:47:13;11.80;;;3.63;;
75320;SDS011;68337;52.196;5.660;2023-10-31T09:49:40;7.35;;;2.45;;
75320;SDS011;68337;52.196;5.660;2023-10-31T09:52:06;3.47;;;2.38;;
75320;SDS011;68337;52.196;5.660;2023-10-31T09:54:32;5.82;;;2.85;;
75320;SDS011;68337;52.196;5.660;2023-10-31T09:56:59;5.25;;;2.38;;
75320;SDS011;68337;52.196;5.660;2023-10-31T09:59:24;10.98;;;2.97;;
75320;SDS011;68337;52.196;5.660;2023-10-31T10:01:50;5.10;;;2.08;;
75320;SDS011;68337;52.196;5.660;2023-10-31T10:04:16;5.82;;;2.15;;
75320;SDS011;68337;52.196;5.660;2023-10-31T10:06:58;5.43;;;2.40;;
75320;SDS011;68337;52.196;5.660;2023-10-31T10:09:27;5.50;;;2.55;;
75320;SDS011;68337;52.196;5.660;2023-10-31T10:11:54;7.60;;;2.88;;
75320;SDS011;68337;52.196;5.660;2023-10-31T10:14:22;6.35;;;2.60;;
75320;SDS011;68337;52.196;5.660;2023-10-31T10:16:48;7.75;;;2.55;;
75320;SDS011;68337;52.196;5.660;2023-10-31T10:19:18;6.43;;;2.53;;
75320;SDS011;68337;52.196;5.660;2023-10-31T10:21:46;6.35;;;2.35;;
75320;SDS011;68337;52.196;5.660;2023-10-31T10:24:13;3.83;;;1.90;;
75320;SDS011;68337;52.196;5.660;2023-10-31T10:26:39;6.85;;;2.08;;
75320;SDS011;68337;52.196;5.660;2023-10-31T10:29:05;5.10;;;2.15;;
75320;SDS011;68337;52.196;5.660;2023-10-31T10:31:30;12.98;;;2.85;;
75320;SDS011;68337;52.196;5.660;2023-10-31T10:33:56;7.35;;;2.45;;
75320;SDS011;68337;52.196;5.660;2023-10-31T10:36:23;5.82;;;1.98;;
75320;SDS011;68337;52.196;5.660;2023-10-31T10:38:51;5.05;;;2.00;;
75320;SDS011;68337;52.196;5.660;2023-10-31T10:41:21;5.82;;;2.42;;
75320;SDS011;68337;52.196;5.660;2023-10-31T10:43:50;3.72;;;1.95;;
75320;SDS011;68337;52.196;5.660;2023-10-31T10:46:22;6.22;;;2.17;;
75320;SDS011;68337;52.196;5.660;2023-10-31T10:48:50;7.50;;;2.63;;
75320;SDS011;68337;52.196;5.660;2023-10-31T10:51:24;7.32;;;2.28;;
75320;SDS011;68337;52.196;5.660;2023-10-31T10:53:58;4.65;;;2.50;;
75320;SDS011;68337;52.196;5.660;2023-10-31T10:56:37;4.68;;;1.90;;
75320;SDS011;68337;52.196;5.660;2023-10-31T10:59:08;5.53;;;2.00;;
75320;SDS011;68337;52.196;5.660;2023-10-31T11:01:40;3.47;;;1.65;;
75320;SDS011;68337;52.196;5.660;2023-10-31T11:04:07;6.25;;;1.58;;
75320;SDS011;68337;52.196;5.660;2023-10-31T11:06:34;6.03;;;2.38;;
75320;SDS011;68337;52.196;5.660;2023-10-31T11:09:02;7.25;;;2.35;;
75320;SDS011;68337;52.196;5.660;2023-10-31T11:11:29;6.88;;;2.20;;
75320;SDS011;68337;52.196;5.660;2023-10-31T11:13:55;5.47;;;1.92;;
75320;SDS011;68337;52.196;5.660;2023-10-31T11:16:44;5.30;;;1.95;;
75320;SDS011;68337;52.196;5.660;2023-10-31T11:19:14;8.00;;;2.22;;
75320;SDS011;68337;52.196;5.660;2023-10-31T11:21:53;5.13;;;2.15;;
75320;SDS011;68337;52.196;5.660;2023-10-31T11:24:21;5.93;;;1.63;;
75320;SDS011;68337;52.196;5.660;2023-10-31T11:26:52;3.70;;;1.52;;
75320;SDS011;68337;52.196;5.660;2023-10-31T11:29:23;4.03;;;1.45;;
75320;SDS011;68337;52.196;5.660;2023-10-31T11:31:49;2.42;;;1.70;;
75320;SDS011;68337;52.196;5.660;2023-10-31T11:34:18;5.68;;;1.48;;
75320;SDS011;68337;52.196;5.660;2023-10-31T11:36:45;1.48;;;1.38;;
75320;SDS011;68337;52.196;5.660;2023-10-31T11:39:14;5.65;;;1.60;;
75320;SDS011;68337;52.196;5.660;2023-10-31T11:41:49;5.05;;;1.55;;
75320;SDS011;68337;52.196;5.660;2023-10-31T11:44:16;5.18;;;1.70;;
75320;SDS011;68337;52.196;5.660;2023-10-31T11:46:42;5.75;;;1.65;;
75320;SDS011;68337;52.196;5.660;2023-10-31T11:49:08;3.08;;;1.30;;
75320;SDS011;68337;52.196;5.660;2023-10-31T11:51:34;4.07;;;1.25;;
75320;SDS011;68337;52.196;5.660;2023-10-31T11:54:01;1.45;;;0.80;;
75320;SDS011;68337;52.196;5.660;2023-10-31T11:56:27;3.30;;;0.95;;
75320;SDS011;68337;52.196;5.660;2023-10-31T11:58:56;1.02;;;0.52;;
75320;SDS011;68337;52.196;5.660;2023-10-31T12:01:23;3.72;;;0.68;;
75320;SDS011;68337;52.196;5.660;2023-10-31T12:03:49;2.15;;;0.68;;
75320;SDS011;68337;52.196;5.660;2023-10-31T12:06:16;1.15;;;0.50;;
75320;SDS011;68337;52.196;5.660;2023-10-31T12:08:43;1.17;;;0.45;;
75320;SDS011;68337;52.196;5.660;2023-10-31T12:11:09;2.80;;;0.70;;
75320;SDS011;68337;52.196;5.660;2023-10-31T12:16:25;4.13;;;0.80;;
75320;SDS011;68337;52.196;5.660;2023-10-31T12:18:59;1.80;;;0.70;;
75320;SDS011;68337;52.196;5.660;2023-10-31T12:21:45;5.22;;;1.17;;
75320;SDS011;68337;52.196;5.660;2023-10-31T12:24:15;0.85;;;0.50;;
75320;SDS011;68337;52.196;5.660;2023-10-31T12:26:42;1.55;;;0.60;;
75320;SDS011;68337;52.196;5.660;2023-10-31T12:31:49;3.83;;;0.82;;
75320;SDS011;68337;52.196;5.660;2023-10-31T12:34:17;2.47;;;0.88;;
75320;SDS011;68337;52.196;5.660;2023-10-31T12:36:48;3.00;;;0.90;;
75320;SDS011;68337;52.196;5.660;2023-10-31T12:39:15;2.78;;;1.10;;
75320;SDS011;68337;52.196;5.660;2023-10-31T12:41:43;4.53;;;1.10;;
75320;SDS011;68337;52.196;5.660;2023-10-31T12:44:09;2.00;;;0.75;;
75320;SDS011;68337;52.196;5.660;2023-10-31T12:46:41;3.10;;;1.00;;
75320;SDS011;68337;52.196;5.660;2023-10-31T12:49:16;1.35;;;0.80;;
75320;SDS011;68337;52.196;5.660;2023-10-31T12:52:02;1.85;;;0.93;;
75320;SDS011;68337;52.196;5.660;2023-10-31T12:54:35;2.13;;;1.17;;
75320;SDS011;68337;52.196;5.660;2023-10-31T12:57:06;3.58;;;1.00;;
75320;SDS011;68337;52.196;5.660;2023-10-31T12:59:33;3.67;;;0.80;;
75320;SDS011;68337;52.196;5.660;2023-10-31T13:01:59;2.80;;;0.80;;
75320;SDS011;68337;52.196;5.660;2023-10-31T13:04:26;2.05;;;1.00;;
75320;SDS011;68337;52.196;5.660;2023-10-31T13:07:02;3.25;;;0.98;;
75320;SDS011;68337;52.196;5.660;2023-10-31T13:09:35;1.95;;;1.17;;
75320;SDS011;68337;52.196;5.660;2023-10-31T13:12:03;1.23;;;0.82;;
75320;SDS011;68337;52.196;5.660;2023-10-31T13:14:30;2.80;;;0.65;;
75320;SDS011;68337;52.196;5.660;2023-10-31T13:16:56;2.25;;;1.08;;
75320;SDS011;68337;52.196;5.660;2023-10-31T13:19:22;2.42;;;1.00;;
75320;SDS011;68337;52.196;5.660;2023-10-31T13:21:48;2.55;;;0.88;;
75320;SDS011;68337;52.196;5.660;2023-10-31T13:24:14;1.30;;;0.70;;
75320;SDS011;68337;52.196;5.660;2023-10-31T13:26:40;1.27;;;0.85;;
75320;SDS011;68337;52.196;5.660;2023-10-31T13:29:06;3.33;;;1.40;;
75320;SDS011;68337;52.196;5.660;2023-10-31T13:31:32;3.72;;;1.83;;
75320;SDS011;68337;52.196;5.660;2023-10-31T13:33:57;12.27;;;6.65;;
75320;SDS011;68337;52.196;5.660;2023-10-31T13:36:23;19.88;;;12.23;;
75320;SDS011;68337;52.196;5.660;2023-10-31T13:38:49;17.58;;;12.27;;
75320;SDS011;68337;52.196;5.660;2023-10-31T13:41:15;23.27;;;15.13;;
75320;SDS011;68337;52.196;5.660;2023-10-31T13:43:40;28.35;;;16.15;;
75320;SDS011;68337;52.196;5.660;2023-10-31T13:46:06;26.63;;;16.60;;
75320;SDS011;68337;52.196;5.660;2023-10-31T13:48:32;24.70;;;16.55;;
75320;SDS011;68337;52.196;5.660;2023-10-31T13:50:58;28.10;;;16.70;;
75320;SDS011;68337;52.196;5.660;2023-10-31T13:53:25;30.08;;;18.35;;
75320;SDS011;68337;52.196;5.660;2023-10-31T13:55:50;29.38;;;16.98;;
75320;SDS011;68337;52.196;5.660;2023-10-31T13:58:16;32.50;;;17.77;;
75320;SDS011;68337;52.196;5.660;2023-10-31T14:00:43;25.95;;;15.95;;
75320;SDS011;68337;52.196;5.660;2023-10-31T14:03:10;30.38;;;17.25;;
75320;SDS011;68337;52.196;5.660;2023-10-31T14:05:36;30.48;;;17.30;;
75320;SDS011;68337;52.196;5.660;2023-10-31T14:08:02;28.30;;;16.67;;
75320;SDS011;68337;52.196;5.660;2023-10-31T14:10:28;33.33;;;16.83;;
75320;SDS011;68337;52.196;5.660;2023-10-31T14:12:56;25.30;;;17.08;;
75320;SDS011;68337;52.196;5.660;2023-10-31T14:15:22;28.10;;;16.65;;
75320;SDS011;68337;52.196;5.660;2023-10-31T14:17:48;32.15;;;17.38;;
75320;SDS011;68337;52.196;5.660;2023-10-31T14:20:15;27.15;;;16.13;;
75320;SDS011;68337;52.196;5.660;2023-10-31T14:22:46;25.20;;;16.23;;
75320;SDS011;68337;52.196;5.660;2023-10-31T14:25:12;26.23;;;15.02;;
75320;SDS011;68337;52.196;5.660;2023-10-31T14:27:38;27.15;;;17.58;;
75320;SDS011;68337;52.196;5.660;2023-10-31T14:30:04;22.23;;;15.10;;
75320;SDS011;68337;52.196;5.660;2023-10-31T14:32:30;28.83;;;17.45;;
75320;SDS011;68337;52.196;5.660;2023-10-31T14:34:56;25.95;;;16.52;;
75320;SDS011;68337;52.196;5.660;2023-10-31T14:37:21;26.63;;;17.80;;
75320;SDS011;68337;52.196;5.660;2023-10-31T14:39:47;26.58;;;16.52;;
75320;SDS011;68337;52.196;5.660;2023-10-31T14:42:13;25.75;;;17.08;;
75320;SDS011;68337;52.196;5.660;2023-10-31T14:44:38;22.25;;;17.13;;